sensor_id;sensor_type;location;lat;lon;timestamp;P1;durP1;ratioP1;P2;durP2;ratioP2
77705;SDS011;66874;45.274;5.880;2023-05-13T00:01:34;5.28;;;3.20;;
77705;SDS011;66874;45.274;5.880;2023-05-13T00:04:06;7.45;;;4.90;;
77705;SDS011;66874;45.274;5.880;2023-05-13T00:06:33;10.27;;;5.50;;
77705;SDS011;66874;45.274;5.880;2023-05-13T00:09:00;10.23;;;6.50;;
77705;SDS011;66874;45.274;5.880;2023-05-13T00:11:25;8.77;;;5.68;;
77705;SDS011;66874;45.274;5.880;2023-05-13T00:13:51;10.25;;;7.18;;
77705;SDS011;66874;45.274;5.880;2023-05-13T00:16:16;12.30;;;7.03;;
77705;SDS011;66874;45.274;5.880;2023-05-13T00:18:42;11.75;;;6.45;;
77705;SDS011;66874;45.274;5.880;2023-05-13T00:21:07;8.95;;;5.88;;
77705;SDS011;66874;45.274;5.880;2023-05-13T00:23:33;13.35;;;6.75;;
77705;SDS011;66874;45.274;5.880;2023-05-13T00:25:58;12.45;;;7.40;;
77705;SDS011;66874;45.274;5.880;2023-05-13T00:28:24;9.70;;;5.75;;
77705;SDS011;66874;45.274;5.880;2023-05-13T00:30:50;9.55;;;5.97;;
77705;SDS011;66874;45.274;5.880;2023-05-13T00:33:15;8.18;;;5.60;;
77705;SDS011;66874;45.274;5.880;2023-05-13T00:35:41;9.02;;;5.57;;
77705;SDS011;66874;45.274;5.880;2023-05-13T00:38:06;10.30;;;6.63;;
77705;SDS011;66874;45.274;5.880;2023-05-13T00:40:33;8.32;;;5.88;;
77705;SDS011;66874;45.274;5.880;2023-05-13T00:43:01;16.48;;;7.18;;
77705;SDS011;66874;45.274;5.880;2023-05-13T00:45:26;11.38;;;6.55;;
77705;SDS011;66874;45.274;5.880;2023-05-13T00:47:52;12.00;;;7.97;;
77705;SDS011;66874;45.274;5.880;2023-05-13T00:50:18;10.27;;;6.68;;
77705;SDS011;66874;45.274;5.880;2023-05-13T00:52:44;10.80;;;6.28;;
77705;SDS011;66874;45.274;5.880;2023-05-13T00:55:11;13.30;;;6.53;;
77705;SDS011;66874;45.274;5.880;2023-05-13T00:57:37;10.52;;;5.47;;
77705;SDS011;66874;45.274;5.880;2023-05-13T01:00:04;9.65;;;5.68;;
77705;SDS011;66874;45.274;5.880;2023-05-13T01:05:17;7.78;;;4.95;;
77705;SDS011;66874;45.274;5.880;2023-05-13T01:13:05;5.47;;;3.42;;
77705;SDS011;66874;45.274;5.880;2023-05-13T01:15:33;3.70;;;2.95;;
77705;SDS011;66874;45.274;5.880;2023-05-13T01:20:33;4.90;;;2.08;;
77705;SDS011;66874;45.274;5.880;2023-05-13T01:22:59;2.78;;;1.63;;
77705;SDS011;66874;45.274;5.880;2023-05-13T01:25:25;5.80;;;2.00;;
77705;SDS011;66874;45.274;5.880;2023-05-13T01:27:51;4.20;;;1.92;;
77705;SDS011;66874;45.274;5.880;2023-05-13T01:30:17;2.90;;;1.80;;
77705;SDS011;66874;45.274;5.880;2023-05-13T01:32:43;3.25;;;1.90;;
77705;SDS011;66874;45.274;5.880;2023-05-13T01:35:10;2.17;;;1.90;;
77705;SDS011;66874;45.274;5.880;2023-05-13T01:37:36;4.13;;;2.20;;
77705;SDS011;66874;45.274;5.880;2023-05-13T01:40:05;4.50;;;3.17;;
77705;SDS011;66874;45.274;5.880;2023-05-13T01:42:32;3.75;;;1.95;;
77705;SDS011;66874;45.274;5.880;2023-05-13T01:44:58;3.33;;;2.10;;
77705;SDS011;66874;45.274;5.880;2023-05-13T01:47:24;3.88;;;1.83;;
77705;SDS011;66874;45.274;5.880;2023-05-13T01:49:49;2.72;;;1.92;;
77705;SDS011;66874;45.274;5.880;2023-05-13T01:52:15;4.65;;;1.92;;
77705;SDS011;66874;45.274;5.880;2023-05-13T01:54:40;3.42;;;1.80;;
77705;SDS011;66874;45.274;5.880;2023-05-13T01:57:05;3.53;;;1.77;;
77705;SDS011;66874;45.274;5.880;2023-05-13T01:59:31;2.13;;;1.70;;
77705;SDS011;66874;45.274;5.880;2023-05-13T02:01:57;3.38;;;2.20;;
77705;SDS011;66874;45.274;5.880;2023-05-13T02:04:22;3.47;;;2.10;;
77705;SDS011;66874;45.274;5.880;2023-05-13T02:06:48;4.93;;;2.20;;
77705;SDS011;66874;45.274;5.880;2023-05-13T02:09:13;5.55;;;2.30;;
77705;SDS011;66874;45.274;5.880;2023-05-13T02:11:39;5.88;;;3.00;;
77705;SDS011;66874;45.274;5.880;2023-05-13T02:14:04;3.55;;;1.70;;
77705;SDS011;66874;45.274;5.880;2023-05-13T02:16:30;2.65;;;2.10;;
77705;SDS011;66874;45.274;5.880;2023-05-13T02:18:55;4.18;;;2.38;;
77705;SDS011;66874;45.274;5.880;2023-05-13T02:21:21;3.35;;;2.53;;
77705;SDS011;66874;45.274;5.880;2023-05-13T02:23:46;3.10;;;2.25;;
77705;SDS011;66874;45.274;5.880;2023-05-13T02:26:12;3.22;;;2.30;;
77705;SDS011;66874;45.274;5.880;2023-05-13T02:28:37;4.55;;;2.17;;
77705;SDS011;66874;45.274;5.880;2023-05-13T02:31:02;4.97;;;2.10;;
77705;SDS011;66874;45.274;5.880;2023-05-13T02:33:28;2.67;;;2.20;;
77705;SDS011;66874;45.274;5.880;2023-05-13T02:35:53;4.20;;;2.78;;
77705;SDS011;66874;45.274;5.880;2023-05-13T02:38:19;3.05;;;1.75;;
77705;SDS011;66874;45.274;5.880;2023-05-13T02:40:44;4.07;;;2.10;;
77705;SDS011;66874;45.274;5.880;2023-05-13T02:43:09;2.95;;;1.92;;
77705;SDS011;66874;45.274;5.880;2023-05-13T02:45:35;3.35;;;2.00;;
77705;SDS011;66874;45.274;5.880;2023-05-13T02:48:00;4.10;;;1.80;;
77705;SDS011;66874;45.274;5.880;2023-05-13T02:50:25;5.28;;;2.13;;
77705;SDS011;66874;45.274;5.880;2023-05-13T02:52:51;4.95;;;2.03;;
77705;SDS011;66874;45.274;5.880;2023-05-13T02:55:16;4.03;;;1.52;;
77705;SDS011;66874;45.274;5.880;2023-05-13T02:57:42;2.08;;;1.10;;
77705;SDS011;66874;45.274;5.880;2023-05-13T03:00:07;2.78;;;1.20;;
77705;SDS011;66874;45.274;5.880;2023-05-13T03:02:33;2.10;;;1.67;;
77705;SDS011;66874;45.274;5.880;2023-05-13T03:05:00;3.45;;;1.90;;
77705;SDS011;66874;45.274;5.880;2023-05-13T03:07:25;1.55;;;1.25;;
77705;SDS011;66874;45.274;5.880;2023-05-13T03:09:50;1.83;;;1.10;;
77705;SDS011;66874;45.274;5.880;2023-05-13T03:12:16;4.60;;;1.33;;
77705;SDS011;66874;45.274;5.880;2023-05-13T03:14:41;2.15;;;1.58;;
77705;SDS011;66874;45.274;5.880;2023-05-13T03:17:08;1.55;;;1.33;;
77705;SDS011;66874;45.274;5.880;2023-05-13T03:19:35;1.92;;;1.33;;
77705;SDS011;66874;45.274;5.880;2023-05-13T03:22:02;1.55;;;1.25;;
77705;SDS011;66874;45.274;5.880;2023-05-13T03:24:28;5.63;;;1.40;;
77705;SDS011;66874;45.274;5.880;2023-05-13T03:26:53;2.25;;;1.27;;
77705;SDS011;66874;45.274;5.880;2023-05-13T03:29:19;3.22;;;1.23;;
77705;SDS011;66874;45.274;5.880;2023-05-13T03:31:45;1.65;;;1.48;;
77705;SDS011;66874;45.274;5.880;2023-05-13T03:34:10;2.08;;;1.38;;
77705;SDS011;66874;45.274;5.880;2023-05-13T03:36:36;2.45;;;1.75;;
77705;SDS011;66874;45.274;5.880;2023-05-13T03:39:01;1.83;;;1.30;;
77705;SDS011;66874;45.274;5.880;2023-05-13T03:41:27;2.85;;;1.30;;
77705;SDS011;66874;45.274;5.880;2023-05-13T03:43:52;3.03;;;1.70;;
77705;SDS011;66874;45.274;5.880;2023-05-13T03:46:18;2.08;;;1.40;;
77705;SDS011;66874;45.274;5.880;2023-05-13T03:48:44;1.52;;;1.10;;
77705;SDS011;66874;45.274;5.880;2023-05-13T03:51:09;1.63;;;1.35;;
77705;SDS011;66874;45.274;5.880;2023-05-13T03:53:35;1.75;;;1.52;;
77705;SDS011;66874;45.274;5.880;2023-05-13T03:56:00;4.32;;;1.70;;
77705;SDS011;66874;45.274;5.880;2023-05-13T03:58:26;3.90;;;1.65;;
77705;SDS011;66874;45.274;5.880;2023-05-13T04:00:51;2.85;;;1.77;;
77705;SDS011;66874;45.274;5.880;2023-05-13T04:03:16;3.55;;;1.45;;
77705;SDS011;66874;45.274;5.880;2023-05-13T04:05:45;3.25;;;1.40;;
77705;SDS011;66874;45.274;5.880;2023-05-13T04:08:11;3.10;;;1.50;;
77705;SDS011;66874;45.274;5.880;2023-05-13T04:10:37;1.83;;;1.40;;
77705;SDS011;66874;45.274;5.880;2023-05-13T04:13:03;3.85;;;1.40;;
77705;SDS011;66874;45.274;5.880;2023-05-13T04:15:28;1.75;;;1.40;;
77705;SDS011;66874;45.274;5.880;2023-05-13T04:17:55;1.85;;;1.48;;
77705;SDS011;66874;45.274;5.880;2023-05-13T04:20:21;1.80;;;1.25;;
77705;SDS011;66874;45.274;5.880;2023-05-13T04:22:47;2.05;;;1.38;;
77705;SDS011;66874;45.274;5.880;2023-05-13T04:25:12;3.28;;;1.92;;
77705;SDS011;66874;45.274;5.880;2023-05-13T04:27:38;2.38;;;1.60;;
77705;SDS011;66874;45.274;5.880;2023-05-13T04:30:03;3.60;;;1.50;;
77705;SDS011;66874;45.274;5.880;2023-05-13T04:32:30;2.03;;;1.30;;
77705;SDS011;66874;45.274;5.880;2023-05-13T04:34:55;4.15;;;1.60;;
77705;SDS011;66874;45.274;5.880;2023-05-13T04:37:21;1.42;;;1.25;;
77705;SDS011;66874;45.274;5.880;2023-05-13T04:39:46;1.65;;;1.38;;
77705;SDS011;66874;45.274;5.880;2023-05-13T04:42:15;1.92;;;1.40;;
77705;SDS011;66874;45.274;5.880;2023-05-13T04:44:41;2.00;;;1.20;;
77705;SDS011;66874;45.274;5.880;2023-05-13T04:47:07;5.93;;;1.40;;
77705;SDS011;66874;45.274;5.880;2023-05-13T04:49:32;1.88;;;0.93;;
77705;SDS011;66874;45.274;5.880;2023-05-13T04:51:59;2.25;;;1.60;;
77705;SDS011;66874;45.274;5.880;2023-05-13T04:54:25;1.30;;;1.20;;
77705;SDS011;66874;45.274;5.880;2023-05-13T04:56:50;1.45;;;1.35;;
77705;SDS011;66874;45.274;5.880;2023-05-13T04:59:16;2.45;;;1.65;;
77705;SDS011;66874;45.274;5.880;2023-05-13T05:01:41;2.35;;;1.40;;
77705;SDS011;66874;45.274;5.880;2023-05-13T05:04:07;1.63;;;1.20;;
77705;SDS011;66874;45.274;5.880;2023-05-13T05:06:32;2.67;;;1.30;;
77705;SDS011;66874;45.274;5.880;2023-05-13T05:08:57;3.78;;;1.60;;
77705;SDS011;66874;45.274;5.880;2023-05-13T05:11:23;4.68;;;2.22;;
77705;SDS011;66874;45.274;5.880;2023-05-13T05:13:48;2.00;;;1.40;;
77705;SDS011;66874;45.274;5.880;2023-05-13T05:16:14;5.03;;;2.35;;
77705;SDS011;66874;45.274;5.880;2023-05-13T05:18:39;3.28;;;1.50;;
77705;SDS011;66874;45.274;5.880;2023-05-13T05:23:32;2.28;;;1.42;;
77705;SDS011;66874;45.274;5.880;2023-05-13T05:25:57;2.10;;;1.63;;
77705;SDS011;66874;45.274;5.880;2023-05-13T05:28:26;4.38;;;1.77;;
77705;SDS011;66874;45.274;5.880;2023-05-13T05:30:51;2.88;;;1.92;;
77705;SDS011;66874;45.274;5.880;2023-05-13T05:33:17;2.13;;;1.63;;
77705;SDS011;66874;45.274;5.880;2023-05-13T05:35:43;2.85;;;1.60;;
77705;SDS011;66874;45.274;5.880;2023-05-13T05:38:09;3.28;;;1.90;;
77705;SDS011;66874;45.274;5.880;2023-05-13T05:40:35;2.30;;;2.03;;
77705;SDS011;66874;45.274;5.880;2023-05-13T05:43:04;2.97;;;2.05;;
77705;SDS011;66874;45.274;5.880;2023-05-13T05:45:30;4.90;;;2.17;;
77705;SDS011;66874;45.274;5.880;2023-05-13T05:47:55;2.58;;;2.15;;
77705;SDS011;66874;45.274;5.880;2023-05-13T05:50:21;3.58;;;1.77;;
77705;SDS011;66874;45.274;5.880;2023-05-13T05:52:47;2.97;;;2.00;;
77705;SDS011;66874;45.274;5.880;2023-05-13T05:55:13;3.75;;;2.13;;
77705;SDS011;66874;45.274;5.880;2023-05-13T05:57:39;2.75;;;1.98;;
77705;SDS011;66874;45.274;5.880;2023-05-13T06:00:04;3.10;;;2.00;;
77705;SDS011;66874;45.274;5.880;2023-05-13T06:02:31;2.13;;;1.90;;
77705;SDS011;66874;45.274;5.880;2023-05-13T06:04:56;2.55;;;1.88;;
77705;SDS011;66874;45.274;5.880;2023-05-13T06:07:22;2.47;;;2.10;;
77705;SDS011;66874;45.274;5.880;2023-05-13T06:09:47;3.38;;;2.00;;
77705;SDS011;66874;45.274;5.880;2023-05-13T06:12:12;4.97;;;2.08;;
77705;SDS011;66874;45.274;5.880;2023-05-13T06:14:38;5.03;;;2.38;;
77705;SDS011;66874;45.274;5.880;2023-05-13T06:17:03;2.72;;;2.25;;
77705;SDS011;66874;45.274;5.880;2023-05-13T06:19:29;5.40;;;2.45;;
77705;SDS011;66874;45.274;5.880;2023-05-13T06:21:54;3.20;;;2.28;;
77705;SDS011;66874;45.274;5.880;2023-05-13T06:24:19;3.45;;;2.50;;
77705;SDS011;66874;45.274;5.880;2023-05-13T06:26:45;2.80;;;2.10;;
77705;SDS011;66874;45.274;5.880;2023-05-13T06:29:10;2.80;;;2.05;;
77705;SDS011;66874;45.274;5.880;2023-05-13T06:31:36;6.03;;;2.10;;
77705;SDS011;66874;45.274;5.880;2023-05-13T06:34:01;3.70;;;2.50;;
77705;SDS011;66874;45.274;5.880;2023-05-13T06:36:26;3.22;;;2.08;;
77705;SDS011;66874;45.274;5.880;2023-05-13T06:38:52;2.63;;;2.00;;
77705;SDS011;66874;45.274;5.880;2023-05-13T06:41:17;2.67;;;2.10;;
77705;SDS011;66874;45.274;5.880;2023-05-13T06:43:43;3.63;;;1.52;;
77705;SDS011;66874;45.274;5.880;2023-05-13T06:46:10;3.53;;;1.50;;
77705;SDS011;66874;45.274;5.880;2023-05-13T06:48:35;1.40;;;1.10;;
77705;SDS011;66874;45.274;5.880;2023-05-13T06:51:01;1.42;;;1.25;;
77705;SDS011;66874;45.274;5.880;2023-05-13T06:53:26;3.13;;;1.52;;
77705;SDS011;66874;45.274;5.880;2023-05-13T06:55:52;2.83;;;1.15;;
77705;SDS011;66874;45.274;5.880;2023-05-13T06:58:17;2.35;;;1.88;;
77705;SDS011;66874;45.274;5.880;2023-05-13T07:00:42;2.47;;;1.90;;
77705;SDS011;66874;45.274;5.880;2023-05-13T07:05:36;2.45;;;1.65;;
77705;SDS011;66874;45.274;5.880;2023-05-13T07:08:01;1.40;;;1.13;;
77705;SDS011;66874;45.274;5.880;2023-05-13T07:10:31;4.28;;;1.73;;
77705;SDS011;66874;45.274;5.880;2023-05-13T07:12:57;3.20;;;1.92;;
77705;SDS011;66874;45.274;5.880;2023-05-13T07:15:23;5.38;;;1.90;;
77705;SDS011;66874;45.274;5.880;2023-05-13T07:17:48;2.22;;;1.70;;
77705;SDS011;66874;45.274;5.880;2023-05-13T07:20:14;2.60;;;1.70;;
77705;SDS011;66874;45.274;5.880;2023-05-13T07:22:40;2.47;;;1.92;;
77705;SDS011;66874;45.274;5.880;2023-05-13T07:25:05;2.67;;;1.88;;
77705;SDS011;66874;45.274;5.880;2023-05-13T07:27:31;2.13;;;1.40;;
77705;SDS011;66874;45.274;5.880;2023-05-13T07:29:56;2.63;;;1.30;;
77705;SDS011;66874;45.274;5.880;2023-05-13T07:32:22;1.77;;;1.50;;
77705;SDS011;66874;45.274;5.880;2023-05-13T07:34:47;1.58;;;1.15;;
77705;SDS011;66874;45.274;5.880;2023-05-13T07:37:12;1.33;;;1.02;;
77705;SDS011;66874;45.274;5.880;2023-05-13T07:39:38;2.33;;;1.13;;
77705;SDS011;66874;45.274;5.880;2023-05-13T07:42:03;2.50;;;1.20;;
77705;SDS011;66874;45.274;5.880;2023-05-13T07:44:29;1.20;;;0.73;;
77705;SDS011;66874;45.274;5.880;2023-05-13T07:46:54;1.95;;;0.90;;
77705;SDS011;66874;45.274;5.880;2023-05-13T07:49:20;2.10;;;0.88;;
77705;SDS011;66874;45.274;5.880;2023-05-13T07:51:45;3.20;;;1.00;;
77705;SDS011;66874;45.274;5.880;2023-05-13T07:54:11;2.63;;;0.90;;
77705;SDS011;66874;45.274;5.880;2023-05-13T07:56:37;2.45;;;0.85;;
77705;SDS011;66874;45.274;5.880;2023-05-13T07:59:02;2.40;;;1.02;;
77705;SDS011;66874;45.274;5.880;2023-05-13T08:01:28;3.10;;;1.05;;
77705;SDS011;66874;45.274;5.880;2023-05-13T08:03:54;4.43;;;1.27;;
77705;SDS011;66874;45.274;5.880;2023-05-13T08:06:20;3.88;;;1.10;;
77705;SDS011;66874;45.274;5.880;2023-05-13T08:08:45;1.35;;;1.00;;
77705;SDS011;66874;45.274;5.880;2023-05-13T08:11:10;0.93;;;0.68;;
77705;SDS011;66874;45.274;5.880;2023-05-13T08:13:37;1.45;;;1.20;;
77705;SDS011;66874;45.274;5.880;2023-05-13T08:16:03;1.55;;;1.20;;
77705;SDS011;66874;45.274;5.880;2023-05-13T08:20:56;3.05;;;1.65;;
77705;SDS011;66874;45.274;5.880;2023-05-13T08:23:21;2.92;;;1.20;;
77705;SDS011;66874;45.274;5.880;2023-05-13T08:25:47;4.32;;;1.60;;
77705;SDS011;66874;45.274;5.880;2023-05-13T08:28:12;3.47;;;1.80;;
77705;SDS011;66874;45.274;5.880;2023-05-13T08:30:38;1.90;;;1.73;;
77705;SDS011;66874;45.274;5.880;2023-05-13T08:33:08;3.65;;;2.50;;
77705;SDS011;66874;45.274;5.880;2023-05-13T08:35:33;3.88;;;2.22;;
77705;SDS011;66874;45.274;5.880;2023-05-13T08:37:58;2.80;;;2.20;;
77705;SDS011;66874;45.274;5.880;2023-05-13T08:40:24;2.22;;;1.63;;
77705;SDS011;66874;45.274;5.880;2023-05-13T08:42:49;4.57;;;2.00;;
77705;SDS011;66874;45.274;5.880;2023-05-13T08:45:18;2.90;;;2.05;;
77705;SDS011;66874;45.274;5.880;2023-05-13T08:50:15;3.05;;;1.40;;
77705;SDS011;66874;45.274;5.880;2023-05-13T08:52:41;2.63;;;1.25;;
77705;SDS011;66874;45.274;5.880;2023-05-13T08:55:07;1.38;;;1.08;;
77705;SDS011;66874;45.274;5.880;2023-05-13T08:57:33;0.98;;;0.80;;
77705;SDS011;66874;45.274;5.880;2023-05-13T08:59:58;2.10;;;1.20;;
77705;SDS011;66874;45.274;5.880;2023-05-13T09:02:24;2.15;;;1.48;;
77705;SDS011;66874;45.274;5.880;2023-05-13T09:04:51;1.90;;;1.13;;
77705;SDS011;66874;45.274;5.880;2023-05-13T09:07:18;1.88;;;1.20;;
77705;SDS011;66874;45.274;5.880;2023-05-13T09:09:43;2.47;;;1.00;;
77705;SDS011;66874;45.274;5.880;2023-05-13T09:12:09;1.40;;;1.10;;
77705;SDS011;66874;45.274;5.880;2023-05-13T09:14:34;1.40;;;0.68;;
77705;SDS011;66874;45.274;5.880;2023-05-13T09:17:02;1.40;;;1.08;;
77705;SDS011;66874;45.274;5.880;2023-05-13T09:19:27;2.85;;;0.98;;
77705;SDS011;66874;45.274;5.880;2023-05-13T09:21:53;1.30;;;1.02;;
77705;SDS011;66874;45.274;5.880;2023-05-13T09:24:18;1.13;;;1.00;;
77705;SDS011;66874;45.274;5.880;2023-05-13T09:26:46;2.08;;;1.48;;
77705;SDS011;66874;45.274;5.880;2023-05-13T09:29:22;2.50;;;0.68;;
77705;SDS011;66874;45.274;5.880;2023-05-13T09:31:59;0.95;;;0.82;;
77705;SDS011;66874;45.274;5.880;2023-05-13T09:37:07;1.63;;;0.80;;
77705;SDS011;66874;45.274;5.880;2023-05-13T09:39:36;1.42;;;0.88;;
77705;SDS011;66874;45.274;5.880;2023-05-13T09:42:03;1.20;;;0.75;;
77705;SDS011;66874;45.274;5.880;2023-05-13T09:44:31;1.77;;;1.67;;
77705;SDS011;66874;45.274;5.880;2023-05-13T09:46:57;1.52;;;1.15;;
77705;SDS011;66874;45.274;5.880;2023-05-13T09:49:26;1.48;;;0.98;;
77705;SDS011;66874;45.274;5.880;2023-05-13T09:51:52;1.73;;;0.77;;
77705;SDS011;66874;45.274;5.880;2023-05-13T09:54:17;3.97;;;1.20;;
77705;SDS011;66874;45.274;5.880;2023-05-13T09:56:43;0.85;;;0.70;;
77705;SDS011;66874;45.274;5.880;2023-05-13T09:59:08;4.78;;;1.23;;
77705;SDS011;66874;45.274;5.880;2023-05-13T10:01:34;1.80;;;1.08;;
77705;SDS011;66874;45.274;5.880;2023-05-13T10:04:02;2.33;;;1.38;;
77705;SDS011;66874;45.274;5.880;2023-05-13T10:06:30;1.63;;;1.15;;
77705;SDS011;66874;45.274;5.880;2023-05-13T10:08:56;2.85;;;1.48;;
77705;SDS011;66874;45.274;5.880;2023-05-13T10:11:23;1.25;;;1.00;;
77705;SDS011;66874;45.274;5.880;2023-05-13T10:13:57;2.80;;;0.98;;
77705;SDS011;66874;45.274;5.880;2023-05-13T10:16:26;3.80;;;0.80;;
77705;SDS011;66874;45.274;5.880;2023-05-13T10:18:51;0.60;;;0.57;;
77705;SDS011;66874;45.274;5.880;2023-05-13T10:21:18;1.30;;;0.93;;
77705;SDS011;66874;45.274;5.880;2023-05-13T10:23:43;2.05;;;1.00;;
77705;SDS011;66874;45.274;5.880;2023-05-13T10:26:15;1.80;;;0.73;;
77705;SDS011;66874;45.274;5.880;2023-05-13T10:28:41;0.70;;;0.63;;
77705;SDS011;66874;45.274;5.880;2023-05-13T10:31:07;1.30;;;0.95;;
77705;SDS011;66874;45.274;5.880;2023-05-13T10:33:33;2.15;;;0.70;;
77705;SDS011;66874;45.274;5.880;2023-05-13T10:43:38;1.00;;;0.82;;
77705;SDS011;66874;45.274;5.880;2023-05-13T10:46:05;2.50;;;0.60;;
77705;SDS011;66874;45.274;5.880;2023-05-13T10:51:07;0.73;;;0.50;;
77705;SDS011;66874;45.274;5.880;2023-05-13T10:53:55;0.88;;;0.50;;
77705;SDS011;66874;45.274;5.880;2023-05-13T10:56:25;2.15;;;0.82;;
77705;SDS011;66874;45.274;5.880;2023-05-13T11:03:54;0.50;;;0.50;;
77705;SDS011;66874;45.274;5.880;2023-05-13T11:08:51;0.93;;;0.55;;
77705;SDS011;66874;45.274;5.880;2023-05-13T11:13:45;0.98;;;0.50;;
77705;SDS011;66874;45.274;5.880;2023-05-13T11:16:13;0.40;;;0.40;;
77705;SDS011;66874;45.274;5.880;2023-05-13T11:18:39;3.00;;;0.90;;
77705;SDS011;66874;45.274;5.880;2023-05-13T11:21:05;0.93;;;0.70;;
77705;SDS011;66874;45.274;5.880;2023-05-13T11:26:11;0.75;;;0.57;;
77705;SDS011;66874;45.274;5.880;2023-05-13T11:31:41;0.60;;;0.57;;
77705;SDS011;66874;45.274;5.880;2023-05-13T11:34:12;1.05;;;0.60;;
77705;SDS011;66874;45.274;5.880;2023-05-13T11:36:40;2.13;;;0.90;;
77705;SDS011;66874;45.274;5.880;2023-05-13T11:39:09;3.33;;;0.57;;
77705;SDS011;66874;45.274;5.880;2023-05-13T11:41:40;2.25;;;0.60;;
77705;SDS011;66874;45.274;5.880;2023-05-13T11:44:08;2.63;;;0.65;;
77705;SDS011;66874;45.274;5.880;2023-05-13T11:46:35;0.93;;;0.50;;
77705;SDS011;66874;45.274;5.880;2023-05-13T11:49:01;1.27;;;0.70;;
77705;SDS011;66874;45.274;5.880;2023-05-13T11:51:26;1.08;;;0.75;;
77705;SDS011;66874;45.274;5.880;2023-05-13T11:53:59;0.40;;;0.40;;
77705;SDS011;66874;45.274;5.880;2023-05-13T11:56:25;0.40;;;0.35;;
77705;SDS011;66874;45.274;5.880;2023-05-13T11:58:52;0.50;;;0.50;;
77705;SDS011;66874;45.274;5.880;2023-05-13T12:01:18;1.02;;;0.40;;
77705;SDS011;66874;45.274;5.880;2023-05-13T12:03:43;0.45;;;0.20;;
77705;SDS011;66874;45.274;5.880;2023-05-13T12:06:09;0.63;;;0.43;;
77705;SDS011;66874;45.274;5.880;2023-05-13T12:08:34;0.77;;;0.50;;
77705;SDS011;66874;45.274;5.880;2023-05-13T12:11:07;0.77;;;0.50;;
77705;SDS011;66874;45.274;5.880;2023-05-13T12:13:37;1.23;;;0.40;;
77705;SDS011;66874;45.274;5.880;2023-05-13T12:16:03;0.52;;;0.40;;
77705;SDS011;66874;45.274;5.880;2023-05-13T12:18:29;0.38;;;0.30;;
77705;SDS011;66874;45.274;5.880;2023-05-13T12:20:56;1.95;;;0.43;;
77705;SDS011;66874;45.274;5.880;2023-05-13T12:23:21;1.23;;;0.50;;
77705;SDS011;66874;45.274;5.880;2023-05-13T12:25:47;1.35;;;0.57;;
77705;SDS011;66874;45.274;5.880;2023-05-13T12:28:22;0.60;;;0.38;;
77705;SDS011;66874;45.274;5.880;2023-05-13T12:31:01;0.40;;;0.40;;
77705;SDS011;66874;45.274;5.880;2023-05-13T12:33:32;1.45;;;0.50;;
77705;SDS011;66874;45.274;5.880;2023-05-13T12:41:18;0.60;;;0.30;;
77705;SDS011;66874;45.274;5.880;2023-05-13T12:43:43;1.83;;;0.63;;
77705;SDS011;66874;45.274;5.880;2023-05-13T12:46:09;1.27;;;0.70;;
77705;SDS011;66874;45.274;5.880;2023-05-13T12:48:35;0.43;;;0.40;;
77705;SDS011;66874;45.274;5.880;2023-05-13T12:51:01;0.80;;;0.60;;
77705;SDS011;66874;45.274;5.880;2023-05-13T12:53:26;1.50;;;0.50;;
77705;SDS011;66874;45.274;5.880;2023-05-13T12:55:52;0.77;;;0.40;;
77705;SDS011;66874;45.274;5.880;2023-05-13T12:58:17;0.70;;;0.50;;
77705;SDS011;66874;45.274;5.880;2023-05-13T13:00:42;0.63;;;0.40;;
77705;SDS011;66874;45.274;5.880;2023-05-13T13:03:08;1.17;;;0.50;;
77705;SDS011;66874;45.274;5.880;2023-05-13T13:05:33;1.55;;;0.40;;
77705;SDS011;66874;45.274;5.880;2023-05-13T13:07:59;2.30;;;1.20;;
77705;SDS011;66874;45.274;5.880;2023-05-13T13:10:29;0.57;;;0.50;;
77705;SDS011;66874;45.274;5.880;2023-05-13T13:12:54;2.13;;;0.70;;
77705;SDS011;66874;45.274;5.880;2023-05-13T13:15:20;3.70;;;0.80;;
77705;SDS011;66874;45.274;5.880;2023-05-13T13:17:45;0.98;;;0.70;;
77705;SDS011;66874;45.274;5.880;2023-05-13T13:20:11;0.77;;;0.75;;
77705;SDS011;66874;45.274;5.880;2023-05-13T13:22:36;3.08;;;0.70;;
77705;SDS011;66874;45.274;5.880;2023-05-13T13:25:05;2.00;;;0.88;;
77705;SDS011;66874;45.274;5.880;2023-05-13T13:27:31;1.65;;;0.77;;
77705;SDS011;66874;45.274;5.880;2023-05-13T13:29:58;0.82;;;0.82;;
77705;SDS011;66874;45.274;5.880;2023-05-13T13:32:24;1.10;;;0.68;;
77705;SDS011;66874;45.274;5.880;2023-05-13T13:34:50;5.07;;;1.05;;
77705;SDS011;66874;45.274;5.880;2023-05-13T13:37:16;0.90;;;0.60;;
77705;SDS011;66874;45.274;5.880;2023-05-13T13:39:41;3.00;;;1.20;;
77705;SDS011;66874;45.274;5.880;2023-05-13T13:42:07;1.73;;;1.00;;
77705;SDS011;66874;45.274;5.880;2023-05-13T13:44:32;1.17;;;0.77;;
77705;SDS011;66874;45.274;5.880;2023-05-13T13:47:00;1.80;;;1.30;;
77705;SDS011;66874;45.274;5.880;2023-05-13T13:49:26;1.73;;;0.70;;
77705;SDS011;66874;45.274;5.880;2023-05-13T13:51:51;1.98;;;0.85;;
77705;SDS011;66874;45.274;5.880;2023-05-13T13:54:17;1.27;;;0.82;;
77705;SDS011;66874;45.274;5.880;2023-05-13T13:56:42;2.13;;;0.80;;
77705;SDS011;66874;45.274;5.880;2023-05-13T13:59:08;1.33;;;0.77;;
77705;SDS011;66874;45.274;5.880;2023-05-13T14:01:33;0.70;;;0.52;;
77705;SDS011;66874;45.274;5.880;2023-05-13T14:04:11;3.05;;;0.85;;
77705;SDS011;66874;45.274;5.880;2023-05-13T14:06:44;1.15;;;0.90;;
77705;SDS011;66874;45.274;5.880;2023-05-13T14:09:10;1.30;;;0.57;;
77705;SDS011;66874;45.274;5.880;2023-05-13T14:11:35;0.93;;;0.70;;
77705;SDS011;66874;45.274;5.880;2023-05-13T14:14:01;2.83;;;0.93;;
77705;SDS011;66874;45.274;5.880;2023-05-13T14:16:27;1.42;;;0.70;;
77705;SDS011;66874;45.274;5.880;2023-05-13T14:18:52;1.27;;;0.60;;
77705;SDS011;66874;45.274;5.880;2023-05-13T14:21:17;1.08;;;0.77;;
77705;SDS011;66874;45.274;5.880;2023-05-13T14:23:43;2.65;;;0.77;;
77705;SDS011;66874;45.274;5.880;2023-05-13T14:26:08;1.23;;;0.80;;
77705;SDS011;66874;45.274;5.880;2023-05-13T14:28:35;1.60;;;0.95;;
77705;SDS011;66874;45.274;5.880;2023-05-13T14:31:01;1.60;;;1.20;;
77705;SDS011;66874;45.274;5.880;2023-05-13T14:33:26;4.90;;;4.40;;
77705;SDS011;66874;45.274;5.880;2023-05-13T14:35:51;3.40;;;1.40;;
77705;SDS011;66874;45.274;5.880;2023-05-13T14:38:17;1.08;;;0.80;;
77705;SDS011;66874;45.274;5.880;2023-05-13T14:40:43;0.93;;;0.45;;
77705;SDS011;66874;45.274;5.880;2023-05-13T14:43:08;0.90;;;0.60;;
77705;SDS011;66874;45.274;5.880;2023-05-13T14:45:34;3.35;;;0.75;;
77705;SDS011;66874;45.274;5.880;2023-05-13T14:48:00;3.30;;;0.90;;
77705;SDS011;66874;45.274;5.880;2023-05-13T14:50:25;1.77;;;0.88;;
77705;SDS011;66874;45.274;5.880;2023-05-13T14:52:50;2.05;;;0.70;;
77705;SDS011;66874;45.274;5.880;2023-05-13T14:55:16;1.30;;;0.88;;
77705;SDS011;66874;45.274;5.880;2023-05-13T14:57:41;2.70;;;1.30;;
77705;SDS011;66874;45.274;5.880;2023-05-13T15:00:07;1.67;;;1.00;;
77705;SDS011;66874;45.274;5.880;2023-05-13T15:02:33;1.15;;;1.00;;
77705;SDS011;66874;45.274;5.880;2023-05-13T15:04:59;3.60;;;1.20;;
77705;SDS011;66874;45.274;5.880;2023-05-13T15:07:24;2.20;;;0.50;;
77705;SDS011;66874;45.274;5.880;2023-05-13T15:09:50;2.25;;;0.60;;
77705;SDS011;66874;45.274;5.880;2023-05-13T15:12:15;0.98;;;0.50;;
77705;SDS011;66874;45.274;5.880;2023-05-13T15:14:41;0.68;;;0.43;;
77705;SDS011;66874;45.274;5.880;2023-05-13T15:17:06;0.52;;;0.40;;
77705;SDS011;66874;45.274;5.880;2023-05-13T15:19:35;0.98;;;0.40;;
77705;SDS011;66874;45.274;5.880;2023-05-13T15:22:02;2.83;;;0.60;;
77705;SDS011;66874;45.274;5.880;2023-05-13T15:24:29;0.85;;;0.47;;
77705;SDS011;66874;45.274;5.880;2023-05-13T15:26:54;1.70;;;0.90;;
77705;SDS011;66874;45.274;5.880;2023-05-13T15:29:20;1.75;;;0.80;;
77705;SDS011;66874;45.274;5.880;2023-05-13T15:31:47;1.17;;;0.70;;
77705;SDS011;66874;45.274;5.880;2023-05-13T15:34:14;2.22;;;0.80;;
77705;SDS011;66874;45.274;5.880;2023-05-13T15:36:40;1.08;;;0.80;;